Terminal Aerodrome Forecast
Issued by NWS

Home | Current Version | Previous Version | Text Only | Print | Product List | Glossary On
Versions: 1 2 3 4 5 6 7 8 9 10 11 12 13 14 15 16 17
157
FTPA31 PHFO 190320 AAB
TAFHJR
TAF AMD
PHJR 190320Z 1903/1924 20012KT 2SM +TSRA SCT015CB OVC030
      TEMPO 1903/1905 VRB15G25KT 1SM +TSRA BKN008 OVC015CB
     FM190600 VRB03KT P6SM VCTS FEW015CB
     FM192000 20009KT P6SM VCTS FEW015CB SCT035=

USA.gov is the U.S. government's official web portal to all federal, state and local government web resources and services.